GPI - Glacier Park Intl

Pirep is a free, collaborative database of all public and private airports located within the United States. All pilots are welcome to contribute, edit, and improve any airport they have local knowledge about, no registration required.
Uploaded photos will be licensed under a CC BY-SA 4.0 license. Please only upload photos you have the rights to use.
Tags
Public
Car Rental
METAR / TAF
Edit Tags
Food
Camping
Lodging
Bicycles
Swimming
Golfing
Fishing
Hot Springs
Museum
Flying Clubs
Airpark
Upcoming Events
No upcoming events. Is anything happening here soon?
*
*
*

Where exactly on/near the airport is this event taking place?

Is there a webpage with more information for this event?

Who should be contacted for more information?

What is this event all about?

Repeat every
Description
Transient Parking
Last updated: 2023-05-14 17:21:50 MDT
Fuel Location
Landing & Tie-down Fees
Crew Car Availability
Last updated: 2023-04-14 22:39:58 MDT
Flying Clubs
WiFi Access
Airport Statistics
Location: Kalispell, MT
Elevation: 2,976ft
Sectional: Great Falls
Activation date: Feb 1944
Fuel: 100LL, A (prices)
Runway 02/20: 9,007ft
Runway 12/30: 3,510ft
Access: Open to the public
Current Weather — VFR
  • Weather data is strictly informational and not for flight planning purposes.
  • METAR
    2024-06-17 05:55:00 MDT
    Ceiling Wind Temperature Dewpoint Weather Visbility
    Sky clear 350° @ 7kt 42°F 35°F N/A 10SM
    Raw: KGPI 171155Z AUTO 35007KT 10SM CLR 06/02 A2978 RMK AO2 SLP087 T00560017 10089 20050 58006
  • TAF
    2024-06-17 06:00:00 MDT – 2024-06-17 11:00:00 MDT
    Ceiling Wind Weather Visbility
    5,000ft 360° @ 8kt Showers in vicinity 6SM
    Clouds: Scattered @ 3,000ft, Overcast @ 5,000ft
    Raw: KGPI 171124Z 1712/1812 36008KT P6SM VCSH SCT030 OVC050 FM171700 05006KT P6SM -RA OVC030 FM172100 14007KT P6SM -SHRA OVC040
  • TAF
    2024-06-17 11:00:00 MDT – 2024-06-17 15:00:00 MDT
    Ceiling Wind Weather Visbility
    3,000ft 50° @ 6kt Light rain 6SM
    Clouds: Overcast @ 3,000ft
    Raw: KGPI 171124Z 1712/1812 36008KT P6SM VCSH SCT030 OVC050 FM171700 05006KT P6SM -RA OVC030 FM172100 14007KT P6SM -SHRA OVC040
  • TAF
    2024-06-17 15:00:00 MDT – 2024-06-18 06:00:00 MDT
    Ceiling Wind Weather Visbility
    4,000ft 140° @ 7kt Light rain showers 6SM
    Clouds: Overcast @ 4,000ft
    Raw: KGPI 171124Z 1712/1812 36008KT P6SM VCSH SCT030 OVC050 FM171700 05006KT P6SM -RA OVC030 FM172100 14007KT P6SM -SHRA OVC040
Click/tap to add an annotation marker to the map
Airport Webcams
No webcams added yet.
Direct links to live image URLs will be displayed inline on this page. URLs to separate webpages will be linked to.
URL:
Direct links to live image URLs will be displayed inline on this page. URLs to separate webpages will be linked to.
URL:
Remarks
  • Clsd to unsked acr opns with more than 30 psgr seats excp ppr call amgr 406-257-5994.
  • Cold temperature airport. altitude correction required at or below -15c.
  • Actvt hirl ry 02/20, mirl ry 12/30, malsr ry 02, & reil ry 20 - ctaf. ry 02, ry 20 and ry 30 papis opr continuously.
Comments
Leave a comment What was your experience like at this airport?